Time;durP1;ratioP1;P1;durP2;ratioP2;P2;SDS_P1;SDS_P2;PMS_P1;PMS_P2;Temp;Humidity;BMP_temperature;BMP_pressure;BME280_temperature;BME280_humidity;BME280_pressure;Samples;Min_cycle;Max_cycle;Signal;HPM_P1;HPM_P2
2023/09/02 00:00:59;;;;;;;15.77;6.82;;;487.10;2380.80;;;;;;5038576;28;20067;-71
2023/09/02 00:03:25;;;;;;;15.30;7.38;;;487.30;2380.80;;;;;;5042629;28;20095;-71
2023/09/02 00:05:51;;;;;;;11.90;6.78;;;512.00;2380.80;;;;;;5039919;28;20033;-71
2023/09/02 00:08:16;;;;;;;11.68;6.78;;;512.00;2380.80;;;;;;5043185;28;20537;-72
2023/09/02 00:10:42;;;;;;;20.85;7.43;;;512.00;2380.80;;;;;;5045654;28;20028;-72
2023/09/02 00:13:09;;;;;;;14.02;6.97;;;487.30;2380.80;;;;;;5049094;28;20028;-71
2023/09/02 00:15:34;;;;;;;14.50;7.10;;;487.10;2380.80;;;;;;5039096;28;20022;-72
2023/09/02 00:18:00;;;;;;;11.10;6.97;;;486.90;2380.80;;;;;;5041078;28;20500;-71
2023/09/02 00:20:26;;;;;;;12.80;6.80;;;486.90;2380.80;;;;;;5038284;28;20044;-71
2023/09/02 00:22:51;;;;;;;12.07;5.90;;;486.80;2380.80;;;;;;5040999;28;20028;-71
2023/09/02 00:25:17;;;;;;;11.27;6.47;;;486.80;2380.80;;;;;;5039957;28;20118;-71
2023/09/02 00:27:43;;;;;;;9.60;6.50;;;486.90;2380.80;;;;;;5038546;28;20105;-72
2023/09/02 00:30:09;;;;;;;8.48;5.78;;;486.80;2380.80;;;;;;5041668;28;20076;-71
2023/09/02 00:32:35;;;;;;;12.20;6.47;;;486.50;2380.80;;;;;;5039473;28;20057;-71
2023/09/02 00:35:01;;;;;;;12.38;6.88;;;461.70;2380.80;;;;;;5042558;28;20033;-71
2023/09/02 00:37:27;;;;;;;13.27;7.75;;;461.60;2380.80;;;;;;5045536;28;20366;-71
2023/09/02 00:39:52;;;;;;;13.57;7.65;;;461.60;2380.80;;;;;;5040755;28;20041;-71
2023/09/02 00:42:19;;;;;;;13.05;6.45;;;461.60;2380.80;;;;;;5048006;28;20474;-71
2023/09/02 00:44:46;;;;;;;14.57;7.25;;;461.50;2380.80;;;;;;5044396;28;20025;-71
2023/09/02 00:47:12;;;;;;;9.73;7.43;;;461.50;2380.80;;;;;;5044225;28;20617;-72
2023/09/02 00:49:38;;;;;;;10.13;6.85;;;461.40;2380.80;;;;;;5045413;28;20115;-71
2023/09/02 00:52:04;;;;;;;9.48;6.57;;;461.50;2380.80;;;;;;5045826;28;20033;-71
2023/09/02 00:54:32;;;;;;;12.90;8.35;;;461.70;2380.80;;;;;;5042345;28;20095;-72
2023/09/02 00:56:58;;;;;;;13.27;8.48;;;461.50;2380.80;;;;;;5045944;28;20025;-72
2023/09/02 00:59:24;;;;;;;12.57;7.55;;;461.70;2380.80;;;;;;5045300;28;20021;-71
2023/09/02 01:01:50;;;;;;;10.95;8.00;;;461.50;2380.80;;;;;;5034934;28;20040;-72
2023/09/02 01:04:16;;;;;;;11.57;8.07;;;461.40;2380.80;;;;;;5043271;28;20160;-71
2023/09/02 01:06:42;;;;;;;11.98;8.80;;;461.70;2380.80;;;;;;5040281;28;20049;-72
2023/09/02 01:09:10;;;;;;;11.88;7.97;;;461.40;2380.80;;;;;;5039244;28;20107;-71
2023/09/02 01:11:35;;;;;;;10.43;7.88;;;461.50;2380.80;;;;;;5042503;28;20045;-71
2023/09/02 01:14:02;;;;;;;12.52;8.43;;;461.50;2380.80;;;;;;5044965;28;20068;-71
2023/09/02 01:16:28;;;;;;;12.48;7.88;;;461.70;2380.80;;;;;;5033477;28;20053;-72
2023/09/02 01:18:54;;;;;;;13.98;8.07;;;461.70;2380.80;;;;;;5034348;28;20036;-71
2023/09/02 01:21:46;;;;;;;14.68;7.97;;;461.70;2380.80;;;;;;5034083;28;20494;-72
2023/09/02 01:24:36;;;;;;;13.65;9.13;;;461.70;2380.80;;;;;;5034434;28;20021;-72
2023/09/02 01:27:24;;;;;;;18.48;8.88;;;461.50;2380.80;;;;;;5034084;28;20052;-71
2023/09/02 01:29:59;;;;;;;11.95;8.57;;;461.50;2380.80;;;;;;5033877;28;20030;-71
2023/09/02 01:32:32;;;;;;;13.43;8.93;;;461.50;2380.80;;;;;;5033865;28;20095;-72
2023/09/02 01:35:04;;;;;;;15.63;8.77;;;461.50;2380.80;;;;;;5034050;28;20053;-72
2023/09/02 01:37:33;;;;;;;15.27;9.50;;;461.40;2380.80;;;;;;5033937;28;20021;-71
2023/09/02 01:39:59;;;;;;;18.83;9.27;;;461.20;2380.80;;;;;;5033871;28;20129;-72
2023/09/02 01:42:26;;;;;;;15.13;9.77;;;461.10;2380.80;;;;;;5033805;28;20092;-72
2023/09/02 01:44:52;;;;;;;12.85;8.18;;;461.10;2380.80;;;;;;5033660;28;20025;-72
2023/09/02 01:47:18;;;;;;;13.32;8.45;;;461.20;2380.80;;;;;;5033730;28;20040;-71
2023/09/02 01:49:47;;;;;;;15.45;9.85;;;461.20;2380.80;;;;;;5033871;28;20022;-72
2023/09/02 01:52:15;;;;;;;14.98;9.65;;;461.50;2380.80;;;;;;5033532;28;20060;-71
2023/09/02 01:54:41;;;;;;;13.57;8.80;;;461.50;2380.80;;;;;;5033625;28;20029;-71
2023/09/02 01:57:07;;;;;;;17.10;9.75;;;461.50;2380.80;;;;;;5033402;28;20048;-72
2023/09/02 01:59:33;;;;;;;16.85;9.90;;;461.60;2380.80;;;;;;5033800;28;20498;-72
2023/09/02 02:02:01;;;;;;;16.58;10.05;;;461.40;2380.80;;;;;;5033527;28;20487;-72
2023/09/02 02:04:40;;;;;;;14.80;9.27;;;461.40;2380.80;;;;;;5033578;28;20029;-71
2023/09/02 02:07:19;;;;;;;16.88;9.07;;;461.40;2380.80;;;;;;5033420;28;20027;-72
2023/09/02 02:09:52;;;;;;;12.82;8.95;;;461.40;2380.80;;;;;;5033366;28;20482;-71
2023/09/02 02:12:18;;;;;;;15.50;8.88;;;461.40;2380.80;;;;;;5033581;28;20075;-71
2023/09/02 02:14:47;;;;;;;15.73;8.80;;;461.40;2380.80;;;;;;5032311;28;20029;-72
2023/09/02 02:17:13;;;;;;;11.82;8.90;;;461.40;2380.80;;;;;;5033392;28;20028;-72
2023/09/02 02:19:39;;;;;;;12.05;8.77;;;461.40;2380.80;;;;;;5033299;28;20486;-72
2023/09/02 02:22:05;;;;;;;14.13;8.93;;;461.40;2380.80;;;;;;5033249;28;20034;-71
2023/09/02 02:24:31;;;;;;;16.42;8.45;;;461.60;2380.80;;;;;;5033423;28;20036;-72
2023/09/02 02:26:57;;;;;;;12.05;9.18;;;461.50;2380.80;;;;;;5033427;28;20409;-72
2023/09/02 02:29:23;;;;;;;13.05;8.45;;;461.50;2380.80;;;;;;5032959;28;20025;-71
2023/09/02 02:31:49;;;;;;;16.92;8.63;;;461.50;2380.80;;;;;;5032817;28;20061;-72
2023/09/02 02:34:15;;;;;;;13.55;8.80;;;461.70;2380.80;;;;;;5033110;28;20041;-72
2023/09/02 02:36:41;;;;;;;13.55;8.50;;;461.60;2380.80;;;;;;5031945;28;20379;-72
2023/09/02 02:39:07;;;;;;;10.98;8.20;;;461.70;2380.80;;;;;;5032927;28;20032;-72
2023/09/02 02:41:33;;;;;;;16.25;9.50;;;461.70;2380.80;;;;;;5033240;28;20060;-72
2023/09/02 02:43:59;;;;;;;15.82;8.38;;;461.70;2380.80;;;;;;5033060;28;20378;-72
2023/09/02 02:46:26;;;;;;;14.73;8.60;;;461.70;2380.80;;;;;;5032978;28;20033;-71
2023/09/02 02:48:51;;;;;;;11.48;8.60;;;461.70;2380.80;;;;;;5032783;28;20029;-72
2023/09/02 02:51:18;;;;;;;14.80;9.32;;;461.50;2380.80;;;;;;5032928;28;20025;-72
2023/09/02 02:53:45;;;;;;;13.25;8.52;;;461.20;2380.80;;;;;;5032722;28;20057;-72
2023/09/02 02:56:10;;;;;;;13.63;9.02;;;461.20;2380.80;;;;;;5033077;28;20025;-72
2023/09/02 02:58:36;;;;;;;13.30;8.65;;;461.50;2380.80;;;;;;5032954;28;20032;-72
2023/09/02 03:01:07;;;;;;;14.02;8.88;;;461.60;2380.80;;;;;;5033045;28;20032;-74
2023/09/02 03:03:35;;;;;;;13.95;8.85;;;461.50;2380.80;;;;;;5032648;28;20029;-72
2023/09/02 03:06:03;;;;;;;19.23;9.45;;;461.60;2380.80;;;;;;5032741;28;20026;-72
2023/09/02 03:08:29;;;;;;;12.30;9.05;;;461.60;2380.80;;;;;;5032848;28;20030;-71
2023/09/02 03:11:03;;;;;;;11.18;8.23;;;461.70;2380.80;;;;;;5032830;28;20474;-72
2023/09/02 03:13:30;;;;;;;15.93;8.77;;;461.70;2380.80;;;;;;5032737;28;20030;-71
2023/09/02 03:15:56;;;;;;;13.52;9.18;;;461.70;2380.80;;;;;;5032924;28;20021;-71
2023/09/02 03:18:22;;;;;;;14.38;9.02;;;461.70;2380.80;;;;;;5032648;28;20040;-72
2023/09/02 03:20:48;;;;;;;11.82;8.40;;;461.50;2380.80;;;;;;5032886;28;20386;-70
2023/09/02 03:23:14;;;;;;;14.77;9.45;;;461.70;2380.80;;;;;;5032451;28;20116;-72
2023/09/02 03:25:40;;;;;;;13.00;9.27;;;461.70;2380.80;;;;;;5032980;28;20026;-71
2023/09/02 03:28:06;;;;;;;17.02;9.18;;;461.70;2380.80;;;;;;5032715;28;20037;-72
2023/09/02 03:30:32;;;;;;;17.20;9.85;;;461.70;2380.80;;;;;;5032641;28;20030;-72
2023/09/02 03:32:58;;;;;;;14.15;9.88;;;461.70;2380.80;;;;;;5032084;28;20054;-71
2023/09/02 03:35:24;;;;;;;16.85;9.85;;;461.70;2380.80;;;;;;5031642;28;20025;-72
2023/09/02 03:37:50;;;;;;;15.50;9.63;;;461.70;2380.80;;;;;;5032381;28;20048;-71
2023/09/02 03:40:15;;;;;;;14.98;9.82;;;461.70;2380.80;;;;;;5033899;28;20466;-72
2023/09/02 03:42:41;;;;;;;19.50;10.65;;;486.40;2380.80;;;;;;5036201;28;20032;-71
2023/09/02 03:45:09;;;;;;;20.58;9.93;;;461.70;2380.80;;;;;;5035985;28;20473;-71
2023/09/02 03:47:35;;;;;;;21.05;10.48;;;461.70;2380.80;;;;;;5036145;28;20172;-72
2023/09/02 03:50:03;;;;;;;15.75;10.60;;;486.40;2380.80;;;;;;5035859;28;20024;-71
2023/09/02 03:52:28;;;;;;;18.15;10.40;;;486.40;2380.80;;;;;;5035752;28;20112;-72
2023/09/02 03:54:54;;;;;;;13.43;9.95;;;486.40;2380.80;;;;;;5035872;28;20163;-71
2023/09/02 03:57:20;;;;;;;15.65;10.50;;;486.40;2380.80;;;;;;5035795;28;20040;-72
2023/09/02 03:59:45;;;;;;;17.17;10.00;;;486.40;2380.80;;;;;;5035875;28;20030;-72
2023/09/02 04:02:11;;;;;;;18.48;11.20;;;486.50;2380.80;;;;;;5035635;28;20042;-71
2023/09/02 04:04:37;;;;;;;14.48;9.57;;;486.50;2380.80;;;;;;5035614;28;20021;-71
2023/09/02 04:07:03;;;;;;;14.65;11.02;;;486.50;2380.80;;;;;;5035673;28;20025;-71
2023/09/02 04:09:28;;;;;;;22.20;10.98;;;486.40;2380.80;;;;;;5035473;28;20080;-71
2023/09/02 04:11:54;;;;;;;17.48;10.07;;;486.40;2380.80;;;;;;5035623;28;20057;-72
2023/09/02 04:14:20;;;;;;;17.75;10.52;;;486.50;2380.80;;;;;;5035654;28;20490;-72
2023/09/02 04:16:46;;;;;;;14.70;10.80;;;486.40;2380.80;;;;;;5035510;28;20021;-71
2023/09/02 04:19:11;;;;;;;18.45;12.07;;;486.60;2380.80;;;;;;5035422;28;20771;-71
2023/09/02 04:21:37;;;;;;;19.02;10.40;;;486.50;2380.80;;;;;;5034135;28;20021;-73
2023/09/02 04:24:03;;;;;;;17.02;11.57;;;486.50;2380.80;;;;;;5035419;28;20474;-72
2023/09/02 04:26:29;;;;;;;19.50;11.20;;;486.50;2380.80;;;;;;5035232;28;20036;-72
2023/09/02 04:28:55;;;;;;;18.55;11.10;;;486.50;2380.80;;;;;;5034084;28;20391;-71
2023/09/02 04:31:22;;;;;;;18.00;11.07;;;486.60;2380.80;;;;;;5035363;28;20112;-72
2023/09/02 04:33:47;;;;;;;15.32;11.15;;;486.60;2380.80;;;;;;5034813;28;20140;-72
2023/09/02 04:36:13;;;;;;;18.33;11.48;;;486.50;2380.80;;;;;;5035337;28;20152;-72
2023/09/02 04:38:39;;;;;;;17.75;11.48;;;486.50;2380.80;;;;;;5035046;28;20061;-71
2023/09/02 04:41:06;;;;;;;21.20;11.55;;;486.50;2380.80;;;;;;5035023;28;20028;-72
2023/09/02 04:43:32;;;;;;;15.00;11.10;;;486.40;2380.80;;;;;;5033827;28;20482;-71
2023/09/02 04:46:07;;;;;;;16.20;11.55;;;461.70;2380.80;;;;;;5034804;28;20386;-71
2023/09/02 04:48:33;;;;;;;17.30;11.63;;;461.60;2380.80;;;;;;5034840;28;20032;-72
2023/09/02 04:50:59;;;;;;;15.90;11.52;;;461.60;2380.80;;;;;;5034776;28;20374;-73
2023/09/02 04:53:25;;;;;;;15.07;10.30;;;461.50;2380.80;;;;;;5034690;28;20131;-72
2023/09/02 04:55:51;;;;;;;16.83;11.40;;;461.40;2380.80;;;;;;5034846;28;20048;-71
2023/09/02 04:58:18;;;;;;;16.42;10.82;;;461.30;2380.80;;;;;;5034715;28;20474;-71
2023/09/02 05:00:44;;;;;;;17.02;11.95;;;461.30;2380.80;;;;;;5035026;28;20100;-73
2023/09/02 05:03:09;;;;;;;18.13;11.57;;;461.40;2380.80;;;;;;5034382;28;20109;-73
2023/09/02 05:05:35;;;;;;;19.33;11.35;;;461.40;2380.80;;;;;;5033247;28;20562;-73
2023/09/02 05:08:02;;;;;;;20.35;12.13;;;461.40;2380.80;;;;;;5033402;28;20033;-72
2023/09/02 05:10:28;;;;;;;18.38;12.23;;;461.60;2380.80;;;;;;5034482;28;20457;-72
2023/09/02 05:12:53;;;;;;;20.45;12.55;;;461.70;2380.80;;;;;;5033478;28;20044;-71
2023/09/02 05:15:19;;;;;;;15.90;10.90;;;486.50;2380.80;;;;;;5055415;28;20456;-72
2023/09/02 05:17:45;;;;;;;16.13;11.52;;;486.60;2380.80;;;;;;5035152;28;20113;-72
2023/09/02 05:20:11;;;;;;;14.20;11.68;;;486.70;2380.80;;;;;;5042682;28;20107;-74
2023/09/02 05:22:37;;;;;;;17.85;11.88;;;486.80;2380.80;;;;;;5039434;28;20402;-72
2023/09/02 05:25:03;;;;;;;18.00;12.15;;;486.90;2380.80;;;;;;5039041;28;20029;-73
2023/09/02 05:27:29;;;;;;;16.88;11.90;;;487.00;2380.80;;;;;;5037777;28;20013;-73
2023/09/02 05:29:55;;;;;;;23.67;11.07;;;487.00;2380.80;;;;;;5036652;28;20037;-73
2023/09/02 05:32:21;;;;;;;16.38;11.85;;;487.20;2380.80;;;;;;5040410;28;20050;-75
2023/09/02 05:34:47;;;;;;;19.75;11.25;;;487.30;2380.80;;;;;;5034832;28;20124;-74
2023/09/02 05:37:13;;;;;;;16.25;12.20;;;487.30;2380.80;;;;;;5039383;28;20025;-75
2023/09/02 05:39:39;;;;;;;19.60;12.02;;;512.10;2380.80;;;;;;5043189;28;20064;-75
2023/09/02 05:42:05;;;;;;;15.77;11.60;;;512.30;2380.80;;;;;;5035137;28;20022;-74
2023/09/02 05:44:34;;;;;;;24.17;12.00;;;512.40;2380.80;;;;;;5039432;28;20021;-73
2023/09/02 05:47:00;;;;;;;20.95;11.18;;;512.50;2380.80;;;;;;5036112;28;20112;-74
2023/09/02 05:49:25;;;;;;;17.02;12.38;;;512.60;2380.80;;;;;;5040645;28;20108;-73
2023/09/02 05:51:51;;;;;;;18.58;12.90;;;512.80;2380.80;;;;;;5036847;28;20052;-73
2023/09/02 05:54:17;;;;;;;17.50;13.35;;;512.90;2380.80;;;;;;5036330;28;20040;-73
2023/09/02 05:56:42;;;;;;;20.50;13.15;;;537.60;2406.40;;;;;;5041105;28;20488;-72
2023/09/02 05:59:08;;;;;;;18.80;14.10;;;537.90;2406.40;;;;;;5038111;28;20032;-71
2023/09/02 06:01:34;;;;;;;27.42;14.00;;;538.00;2406.40;;;;;;5036088;28;20026;-71
2023/09/02 06:03:59;;;;;;;18.38;13.73;;;538.10;2406.40;;;;;;5040053;28;20537;-72
2023/09/02 06:06:25;;;;;;;18.17;14.05;;;538.30;2406.40;;;;;;5040966;28;20075;-73
2023/09/02 06:08:53;;;;;;;17.52;13.40;;;538.30;2406.40;;;;;;5036596;28;20025;-73
2023/09/02 06:11:19;;;;;;;17.13;13.27;;;538.50;2406.40;;;;;;5039871;28;20029;-72
2023/09/02 06:13:45;;;;;;;15.88;12.73;;;538.50;2406.40;;;;;;5041184;28;20686;-72
2023/09/02 06:16:11;;;;;;;19.83;13.25;;;563.30;2432.00;;;;;;5039325;28;20029;-73
2023/09/02 06:18:36;;;;;;;23.60;13.38;;;563.60;2432.00;;;;;;5038684;28;20026;-73
2023/09/02 06:21:12;;;;;;;24.55;13.80;;;;;;;;;;5042452;28;20025;-72
2023/09/02 06:23:42;;;;;;;19.83;13.27;;;563.80;2432.00;;;;;;5033293;28;20021;-72
2023/09/02 06:26:07;;;;;;;22.67;12.85;;;563.90;2432.00;;;;;;5041619;28;20045;-73
2023/09/02 06:28:33;;;;;;;19.30;13.48;;;564.00;2432.00;;;;;;5042452;28;20084;-73
2023/09/02 06:31:07;;;;;;;19.20;13.13;;;564.10;2432.00;;;;;;5036906;28;20024;-73
2023/09/02 06:33:33;;;;;;;16.65;12.45;;;564.10;2432.00;;;;;;5034420;28;20053;-73
2023/09/02 06:35:59;;;;;;;18.15;12.82;;;588.90;2432.00;;;;;;5033623;28;20017;-74
2023/09/02 06:38:25;;;;;;;16.98;13.30;;;589.00;2432.00;;;;;;5041781;28;20035;-72
2023/09/02 06:40:51;;;;;;;19.83;12.07;;;589.00;2432.00;;;;;;5037396;28;20071;-71
2023/09/02 06:43:17;;;;;;;14.15;11.02;;;589.20;2432.00;;;;;;5040481;28;20532;-74
2023/09/02 06:45:42;;;;;;;17.13;12.15;;;589.40;2432.00;;;;;;5037695;28;20049;-73
2023/09/02 06:48:08;;;;;;;15.70;10.88;;;589.60;2432.00;;;;;;5038527;28;20026;-73
2023/09/02 06:50:34;;;;;;;17.17;11.32;;;589.70;2432.00;;;;;;5034998;28;20022;-73
2023/09/02 06:53:00;;;;;;;12.90;10.52;;;614.40;2432.00;;;;;;5033822;28;20064;-73
2023/09/02 06:55:25;;;;;;;15.52;12.40;;;614.80;2432.00;;;;;;5037924;28;20528;-72
2023/09/02 06:57:51;;;;;;;15.93;10.95;;;615.00;2432.00;;;;;;5038914;28;20025;-72
2023/09/02 07:00:17;;;;;;;12.27;10.38;;;614.90;2432.00;;;;;;5035349;28;20465;-72
2023/09/02 07:02:42;;;;;;;15.48;10.75;;;615.20;2432.00;;;;;;5037694;28;20394;-74
2023/09/02 07:05:08;;;;;;;14.65;11.10;;;640.00;2432.00;;;;;;5040562;28;20469;-72
2023/09/02 07:07:36;;;;;;;12.27;9.57;;;640.10;2432.00;;;;;;5036816;28;20020;-72
2023/09/02 07:10:03;;;;;;;12.40;8.95;;;640.20;2432.00;;;;;;5040850;28;20025;-72
2023/09/02 07:12:29;;;;;;;14.20;8.90;;;640.40;2432.00;;;;;;5034828;28;20026;-72
2023/09/02 07:14:54;;;;;;;12.43;8.40;;;640.70;2432.00;;;;;;5035078;28;20051;-72
2023/09/02 07:17:20;;;;;;;9.38;6.07;;;665.60;2432.00;;;;;;5047468;28;20025;-72
2023/09/02 07:19:46;;;;;;;10.13;5.57;;;665.60;2380.80;;;;;;5040668;28;20374;-72
2023/09/02 07:22:12;;;;;;;11.73;6.82;;;666.00;2278.40;;;;;;5038899;28;20116;-72
2023/09/02 07:24:37;;;;;;;8.07;6.38;;;666.30;2252.80;;;;;;5043120;28;20025;-72
2023/09/02 07:27:04;;;;;;;8.93;6.45;;;666.30;2278.40;;;;;;5040980;28;20021;-71
2023/09/02 07:29:29;;;;;;;9.20;6.65;;;666.30;2252.80;;;;;;5036282;28;20505;-73
2023/09/02 07:31:58;;;;;;;9.65;5.40;;;691.40;2201.60;;;;;;5038187;28;20045;-73
2023/09/02 07:34:24;;;;;;;9.43;6.25;;;691.70;2099.20;;;;;;5042643;28;20124;-73
2023/09/02 07:36:50;;;;;;;5.95;5.30;;;691.70;2099.20;;;;;;5039722;28;20104;-74
2023/09/02 07:39:16;;;;;;;7.85;6.35;;;;;;;;;;5044711;28;20029;-72
2023/09/02 07:41:42;;;;;;;9.82;5.80;;;;;;;;;;5043546;28;20017;-72
2023/09/02 07:44:12;;;;;;;8.73;5.20;;;;;;;;;;5042094;28;20065;-72
2023/09/02 07:46:37;;;;;;;9.60;5.15;;;717.10;1843.20;;;;;;5049178;28;20024;-72
2023/09/02 07:49:03;;;;;;;7.40;4.88;;;717.10;1868.80;;;;;;5048876;28;20030;-72
2023/09/02 07:51:29;;;;;;;9.02;4.35;;;717.10;1817.60;;;;;;5044815;28;20072;-72
2023/09/02 07:53:54;;;;;;;8.10;4.70;;;717.40;1792.00;;;;;;5041327;28;20505;-72
2023/09/02 07:56:22;;;;;;;5.63;4.18;;;;;;;;;;5040285;28;20462;-72
2023/09/02 07:58:49;;;;;;;8.52;4.95;;;717.70;1740.80;;;;;;5044586;28;20029;-73
2023/09/02 08:01:15;;;;;;;10.75;5.03;;;742.50;1792.00;;;;;;5040763;28;20039;-73
2023/09/02 08:03:41;;;;;;;8.80;5.15;;;742.50;1817.60;;;;;;5042138;28;20029;-72
2023/09/02 08:06:07;;;;;;;10.13;5.47;;;742.90;1792.00;;;;;;5043081;28;20421;-73
2023/09/02 08:08:33;;;;;;;11.48;5.10;;;742.90;1740.80;;;;;;5041013;28;20381;-73
2023/09/02 08:11:06;;;;;;;9.30;5.25;;;742.80;1766.40;;;;;;5045695;28;20044;-73
2023/09/02 08:13:33;;;;;;;9.07;4.90;;;743.10;1740.80;;;;;;5040474;28;20104;-73
2023/09/02 08:16:02;;;;;;;8.15;5.15;;;768.00;1715.20;;;;;;5043004;28;20123;-73
2023/09/02 08:18:28;;;;;;;6.60;5.00;;;768.00;1715.20;;;;;;5038743;28;20025;-73
2023/09/02 08:20:54;;;;;;;12.15;5.50;;;768.00;1689.60;;;;;;5039730;28;20024;-72
2023/09/02 08:23:20;;;;;;;11.82;5.55;;;;;;;;;;5039800;28;20061;-73
2023/09/02 08:25:45;;;;;;;9.90;5.10;;;768.60;1612.80;;;;;;5036655;28;20056;-73
2023/09/02 08:28:11;;;;;;;9.02;5.10;;;768.50;1612.80;;;;;;5040596;28;20057;-73
2023/09/02 08:30:40;;;;;;;6.60;4.97;;;768.40;1664.00;;;;;;5041157;28;20020;-74
2023/09/02 08:33:06;;;;;;;8.27;4.32;;;768.50;1664.00;;;;;;5042289;28;20087;-73
2023/09/02 08:35:38;;;;;;;7.10;5.28;;;768.90;1587.20;;;;;;5043915;28;20037;-73
2023/09/02 08:38:04;;;;;;;7.95;4.70;;;768.60;1561.60;;;;;;5039265;28;20025;-73
2023/09/02 08:40:31;;;;;;;9.07;4.93;;;793.60;1612.80;;;;;;5041883;28;20490;-73
2023/09/02 08:42:59;;;;;;;8.43;4.88;;;768.50;1587.20;;;;;;5040928;28;20304;-73
2023/09/02 08:45:28;;;;;;;8.13;4.93;;;768.60;1587.20;;;;;;5035175;28;20033;-73
2023/09/02 08:47:59;;;;;;;7.68;5.28;;;793.70;1536.00;;;;;;5040274;28;20347;-73
2023/09/02 08:50:28;;;;;;;6.53;4.72;;;794.10;1536.00;;;;;;5048236;28;20021;-73
2023/09/02 08:52:55;;;;;;;7.38;5.50;;;794.20;1536.00;;;;;;5042429;28;20030;-74
2023/09/02 08:55:22;;;;;;;6.88;5.05;;;794.20;1536.00;;;;;;5042569;28;20078;-73
2023/09/02 08:57:48;;;;;;;9.07;4.97;;;794.50;1561.60;;;;;;5047257;28;20017;-73
2023/09/02 09:00:14;;;;;;;8.93;4.82;;;;;;;;;;5034422;28;20033;-73
2023/09/02 09:02:41;;;;;;;5.93;4.28;;;794.50;1484.80;;;;;;5039668;28;20034;-74
2023/09/02 09:05:08;;;;;;;5.85;4.47;;;794.50;1510.40;;;;;;5039332;28;20044;-73
2023/09/02 09:07:38;;;;;;;8.57;4.72;;;794.20;1484.80;;;;;;5039007;28;20128;-73
2023/09/02 09:10:06;;;;;;;5.55;3.83;;;794.50;1433.60;;;;;;5036400;28;20033;-73
2023/09/02 09:12:33;;;;;;;7.28;3.92;;;819.30;1433.60;;;;;;5034553;28;20021;-73
2023/09/02 09:15:01;;;;;;;8.27;4.20;;;819.50;1433.60;;;;;;5042554;28;20111;-73
2023/09/02 09:17:28;;;;;;;5.18;4.22;;;819.60;1433.60;;;;;;5039883;28;20014;-73
2023/09/02 09:19:56;;;;;;;7.50;4.18;;;819.70;1382.40;;;;;;5041328;28;20500;-74
2023/09/02 09:22:22;;;;;;;7.47;4.60;;;819.80;1382.40;;;;;;5033938;28;20083;-73
2023/09/02 09:24:47;;;;;;;5.65;4.43;;;819.40;1459.20;;;;;;5040445;28;20030;-73
2023/09/02 09:27:13;;;;;;;8.02;4.28;;;819.60;1408.00;;;;;;5041486;28;20028;-73
2023/09/02 09:29:42;;;;;;;7.10;3.78;;;819.70;1408.00;;;;;;5042739;28;20021;-73
2023/09/02 09:32:11;;;;;;;8.90;3.65;;;819.80;1331.20;;;;;;5039186;28;20028;-72
2023/09/02 09:34:41;;;;;;;9.02;4.43;;;820.00;1305.60;;;;;;5041936;28;20021;-73
2023/09/02 09:37:08;;;;;;;7.13;3.80;;;820.10;1382.40;;;;;;5042710;28;20083;-74
2023/09/02 09:39:44;;;;;;;5.03;3.50;;;820.10;1356.80;;;;;;5034481;28;20120;-72
2023/09/02 09:42:13;;;;;;;5.07;3.65;;;845.10;1382.40;;;;;;5031439;28;20070;-73
2023/09/02 09:45:01;;;;;;;7.78;4.03;;;845.00;1305.60;;;;;;5040530;28;20021;-73
2023/09/02 09:47:27;;;;;;;6.05;4.40;;;845.10;1331.20;;;;;;5031291;28;20144;-73
2023/09/02 09:49:53;;;;;;;6.75;3.78;;;845.20;1382.40;;;;;;5036288;28;20475;-73
2023/09/02 09:52:20;;;;;;;5.53;3.90;;;845.30;1305.60;;;;;;5036427;28;20017;-72
2023/09/02 09:54:51;;;;;;;6.78;3.75;;;845.20;1331.20;;;;;;5035508;28;20033;-73
2023/09/02 09:57:37;;;;;;;7.45;4.72;;;845.60;1305.60;;;;;;5044896;28;20028;-73
2023/09/02 10:00:07;;;;;;;13.77;6.45;;;845.70;1280.00;;;;;;5038880;28;20432;-73
2023/09/02 10:02:34;;;;;;;10.95;5.55;;;845.70;1280.00;;;;;;5039399;28;20070;-73
2023/09/02 10:05:01;;;;;;;10.00;6.80;;;870.70;1280.00;;;;;;5041638;28;20028;-73
2023/09/02 10:07:31;;;;;;;6.63;4.38;;;870.70;1305.60;;;;;;5042982;28;20100;-74
2023/09/02 10:09:59;;;;;;;6.60;3.85;;;870.70;1254.40;;;;;;5034264;28;20025;-74
2023/09/02 10:12:25;;;;;;;5.47;3.83;;;845.40;1280.00;;;;;;5037396;28;20017;-75
2023/09/02 10:14:51;;;;;;;6.57;3.53;;;870.50;1254.40;;;;;;5035245;28;20051;-74
2023/09/02 10:17:18;;;;;;;3.70;2.78;;;871.30;1203.20;;;;;;5017065;28;20490;-72
2023/09/02 10:19:45;;;;;;;6.18;3.47;;;896.50;1152.00;;;;;;5040533;28;20039;-73
2023/09/02 10:22:21;;;;;;;8.23;3.53;;;896.60;1126.40;;;;;;5041918;28;20049;-73
2023/09/02 10:24:52;;;;;;;6.88;3.90;;;896.80;1126.40;;;;;;5039494;28;20030;-73
2023/09/02 10:27:22;;;;;;;5.93;3.95;;;896.80;1126.40;;;;;;5035583;28;20021;-75
2023/09/02 10:29:56;;;;;;;6.65;3.53;;;896.90;1100.80;;;;;;5033216;28;20022;-76
2023/09/02 10:32:27;;;;;;;5.45;3.15;;;896.60;1126.40;;;;;;5036565;28;20045;-74
2023/09/02 10:35:04;;;;;;;4.18;3.05;;;896.60;1126.40;;;;;;5038706;28;20021;-76
2023/09/02 10:37:41;;;;;;;5.93;3.45;;;896.60;1126.40;;;;;;5038650;28;20018;-74
2023/09/02 10:40:10;;;;;;;8.57;3.90;;;896.60;1152.00;;;;;;5035143;28;20092;-75
2023/09/02 10:42:36;;;;;;;13.02;4.80;;;896.60;1152.00;;;;;;5037897;28;20049;-74
2023/09/02 10:45:04;;;;;;;4.30;3.20;;;896.50;1126.40;;;;;;5023396;28;20025;-75
2023/09/02 10:47:30;;;;;;;4.20;3.50;;;896.60;1100.80;;;;;;5038071;28;20021;-73
2023/09/02 10:49:57;;;;;;;5.93;3.35;;;896.80;1075.20;;;;;;5046177;28;20033;-75
2023/09/02 10:52:22;;;;;;;8.23;3.88;;;896.90;1075.20;;;;;;5048905;28;20465;-75
2023/09/02 10:55:08;;;;;;;4.72;3.20;;;921.60;1100.80;;;;;;5039753;28;20040;-74
2023/09/02 10:57:51;;;;;;;4.10;3.30;;;921.80;1126.40;;;;;;5048390;28;20028;-75
2023/09/02 11:00:27;;;;;;;7.93;2.92;;;921.60;1126.40;;;;;;5034517;28;20028;-74
2023/09/02 11:02:57;;;;;;;6.15;3.45;;;896.80;1075.20;;;;;;5043271;28;20040;-74
2023/09/02 11:05:27;;;;;;;6.03;3.53;;;896.90;1075.20;;;;;;5045663;28;20111;-75
2023/09/02 11:07:54;;;;;;;4.57;3.20;;;921.90;1100.80;;;;;;5037741;28;20029;-75
2023/09/02 11:10:21;;;;;;;18.83;4.85;;;896.90;1049.60;;;;;;5033796;28;20030;-75
2023/09/02 11:12:59;;;;;;;6.43;3.30;;;896.80;1075.20;;;;;;5037400;28;20033;-74
2023/09/02 11:15:25;;;;;;;3.72;2.80;;;896.50;1152.00;;;;;;5039093;28;20128;-75
2023/09/02 11:17:52;;;;;;;7.65;3.10;;;871.30;1177.60;;;;;;5037298;28;20366;-74
2023/09/02 11:20:24;;;;;;;5.15;3.30;;;896.60;1126.40;;;;;;5038692;28;20026;-75
2023/09/02 11:23:01;;;;;;;8.82;3.50;;;921.90;1100.80;;;;;;5042961;28;20021;-75
2023/09/02 11:25:41;;;;;;;6.07;3.25;;;921.90;1075.20;;;;;;5041316;28;20025;-75
2023/09/02 11:28:08;;;;;;;3.88;2.80;;;922.20;1075.20;;;;;;5044978;28;20010;-75
2023/09/02 11:30:36;;;;;;;6.10;2.97;;;921.70;1075.20;;;;;;5040856;28;20041;-74
2023/09/02 11:33:02;;;;;;;6.68;3.08;;;921.80;1100.80;;;;;;5039079;28;20037;-75
2023/09/02 11:35:37;;;;;;;4.50;2.67;;;922.00;1100.80;;;;;;5041280;28;20067;-76
2023/09/02 11:38:04;;;;;;;;;;;921.80;1075.20;;;;;;5045965;28;20474;-74
2023/09/02 11:40:30;;;;;;;6.30;3.25;;;921.90;1049.60;;;;;;5040551;28;20000;-74
2023/09/02 11:43:00;;;;;;;6.78;3.08;;;896.90;1049.60;;;;;;5042113;28;20096;-74
2023/09/02 11:45:34;;;;;;;5.60;3.53;;;896.80;1049.60;;;;;;5036840;28;20056;-74
2023/09/02 11:48:02;;;;;;;3.90;2.63;;;921.70;1049.60;;;;;;5038024;28;20029;-74
2023/09/02 11:50:28;;;;;;;5.10;2.83;;;921.70;1049.60;;;;;;5043911;28;20018;-74
2023/09/02 11:52:55;;;;;;;5.25;3.20;;;896.60;1100.80;;;;;;5035485;28;20087;-75
2023/09/02 11:55:22;;;;;;;5.43;3.05;;;921.60;1100.80;;;;;;5020216;28;20389;-74
2023/09/02 11:57:48;;;;;;;6.22;3.13;;;922.50;998.40;;;;;;5049254;28;20017;-75
2023/09/02 12:00:19;;;;;;;4.22;3.00;;;922.20;1024.00;;;;;;5040400;28;20049;-77
2023/09/02 12:02:46;;;;;;;4.93;3.03;;;922.40;1049.60;;;;;;5038932;28;20041;-75
2023/09/02 12:05:13;;;;;;;4.03;2.85;;;947.20;1024.00;;;;;;5047235;28;20024;-76
2023/09/02 12:07:40;;;;;;;7.47;3.45;;;947.40;1049.60;;;;;;5044116;28;20026;-74
2023/09/02 12:10:08;;;;;;;4.18;3.13;;;922.50;1075.20;;;;;;5042492;28;20030;-74
2023/09/02 12:12:35;;;;;;;4.30;3.28;;;947.50;1024.00;;;;;;5046069;28;20017;-74
2023/09/02 12:15:03;;;;;;;5.90;3.25;;;922.20;1049.60;;;;;;5021108;28;20440;-75